createdAt,value
2023-02-24T00:00:26.002Z,1004.81
2023-02-24T00:01:26.009Z,1004.82
2023-02-24T00:02:26.029Z,1004.84
2023-02-24T00:03:26.026Z,1004.84
2023-02-24T00:04:25.959Z,1004.81
2023-02-24T00:05:25.936Z,1004.78
2023-02-24T00:06:25.927Z,1004.85
2023-02-24T00:07:25.911Z,1004.80
2023-02-24T00:08:25.904Z,1004.79
2023-02-24T00:09:25.893Z,1004.79
2023-02-24T00:10:25.889Z,1004.74
2023-02-24T00:11:25.864Z,1004.72
2023-02-24T00:12:25.858Z,1004.73
2023-02-24T00:13:25.847Z,1004.74
2023-02-24T00:14:25.842Z,1004.72
2023-02-24T00:15:25.825Z,1004.71
2023-02-24T00:16:26.026Z,1004.78
2023-02-24T00:17:25.908Z,1004.76
2023-02-24T00:18:25.803Z,1004.75
2023-02-24T00:19:25.812Z,1004.73
2023-02-24T00:20:25.765Z,1004.69
2023-02-24T00:21:25.768Z,1004.71
2023-02-24T00:22:25.757Z,1004.70
2023-02-24T00:23:25.740Z,1004.70
2023-02-24T00:24:25.717Z,1004.70
2023-02-24T00:25:25.715Z,1004.69
2023-02-24T00:26:25.695Z,1004.66
2023-02-24T00:27:25.693Z,1004.74
2023-02-24T00:28:25.674Z,1004.69
2023-02-24T00:29:25.674Z,1004.69
2023-02-24T00:30:25.664Z,1004.67
2023-02-24T00:31:26.041Z,1004.71
2023-02-24T00:32:25.817Z,1004.59
2023-02-24T00:33:25.630Z,1004.63
2023-02-24T00:34:25.622Z,1004.63
2023-02-24T00:35:25.633Z,1004.61
2023-02-24T00:36:25.602Z,1004.61
2023-02-24T00:37:25.589Z,1004.56
2023-02-24T00:38:25.583Z,1004.56
2023-02-24T00:39:25.565Z,1004.58
2023-02-24T00:40:25.557Z,1004.57
2023-02-24T00:41:25.556Z,1004.54
2023-02-24T00:42:25.533Z,1004.58
2023-02-24T00:43:25.527Z,1004.50
2023-02-24T00:44:25.511Z,1004.49
2023-02-24T00:45:25.504Z,1004.55
2023-02-24T00:46:25.588Z,1004.45
2023-02-24T00:47:25.482Z,1004.49
2023-02-24T00:48:25.473Z,1004.49
2023-02-24T00:49:25.455Z,1004.50
2023-02-24T00:50:25.439Z,1004.44
2023-02-24T00:51:25.475Z,1004.48
2023-02-24T00:52:25.431Z,1004.59
2023-02-24T00:53:25.412Z,1004.56
2023-02-24T00:54:25.441Z,1004.49
2023-02-24T00:55:25.393Z,1004.56
2023-02-24T00:56:25.381Z,1004.57
2023-02-24T00:57:25.362Z,1004.59
2023-02-24T00:58:25.359Z,1004.54
2023-02-24T00:59:25.347Z,1004.54
2023-02-24T01:00:25.333Z,1004.48
2023-02-24T01:01:25.366Z,1004.55
2023-02-24T01:02:25.316Z,1004.57
2023-02-24T01:03:25.303Z,1004.50
2023-02-24T01:04:25.289Z,1004.52
2023-02-24T01:05:25.279Z,1004.51
2023-02-24T01:06:25.262Z,1004.51
2023-02-24T01:07:25.286Z,1004.47
2023-02-24T01:08:25.241Z,1004.50
2023-02-24T01:09:25.236Z,1004.47
2023-02-24T01:10:25.222Z,1004.48
2023-02-24T01:11:25.206Z,1004.46
2023-02-24T01:12:25.203Z,1004.43
2023-02-24T01:13:25.182Z,1004.44
2023-02-24T01:14:25.177Z,1004.42
2023-02-24T01:15:25.168Z,1004.43
2023-02-24T01:16:25.163Z,1004.45
2023-02-24T01:17:25.140Z,1004.43
2023-02-24T01:18:25.127Z,1004.41
2023-02-24T01:19:25.124Z,1004.44
2023-02-24T01:20:25.116Z,1004.39
2023-02-24T01:21:25.102Z,1004.43
2023-02-24T01:22:25.093Z,1004.38
2023-02-24T01:23:25.099Z,1004.49
2023-02-24T01:24:25.071Z,1004.45
2023-02-24T01:25:25.047Z,1004.39
2023-02-24T01:26:25.034Z,1004.43
2023-02-24T01:27:25.032Z,1004.43
2023-02-24T01:28:25.022Z,1004.39
2023-02-24T01:29:25.005Z,1004.37
2023-02-24T01:30:24.993Z,1004.36
2023-02-24T01:31:25.539Z,1004.40
2023-02-24T01:32:25.230Z,1004.40
2023-02-24T01:33:25.051Z,1004.36
2023-02-24T01:34:24.952Z,1004.39
2023-02-24T01:35:24.939Z,1004.34
2023-02-24T01:36:24.922Z,1004.46
2023-02-24T01:37:24.911Z,1004.43
2023-02-24T01:38:24.918Z,1004.39
2023-02-24T01:39:24.914Z,1004.35
2023-02-24T01:40:24.895Z,1004.38
2023-02-24T01:41:24.874Z,1004.37
2023-02-24T01:42:24.863Z,1004.40
2023-02-24T01:43:24.851Z,1004.35
2023-02-24T01:44:24.839Z,1004.33
2023-02-24T01:45:25.197Z,1004.27
2023-02-24T01:46:24.881Z,1004.27
2023-02-24T01:47:24.798Z,1004.30
2023-02-24T01:48:24.804Z,1004.35
2023-02-24T01:49:24.780Z,1004.28
2023-02-24T01:50:24.763Z,1004.32
2023-02-24T01:51:24.762Z,1004.21
2023-02-24T01:52:24.746Z,1004.21
2023-02-24T01:53:24.738Z,1004.23
2023-02-24T01:54:24.730Z,1004.21
2023-02-24T01:55:24.737Z,1004.23
2023-02-24T01:56:24.703Z,1004.19
2023-02-24T01:57:24.694Z,1004.21
2023-02-24T01:58:24.673Z,1004.19
2023-02-24T01:59:24.680Z,1004.18
2023-02-24T02:00:24.664Z,1004.19
2023-02-24T02:01:24.747Z,1004.23
2023-02-24T02:02:24.807Z,1004.16
2023-02-24T02:03:24.622Z,1004.15
2023-02-24T02:04:24.619Z,1004.12
2023-02-24T02:05:24.604Z,1004.10
2023-02-24T02:06:24.594Z,1004.15
2023-02-24T02:07:24.591Z,1004.19
2023-02-24T02:08:24.616Z,1004.19
2023-02-24T02:09:24.556Z,1004.15
2023-02-24T02:10:24.571Z,1004.11
2023-02-24T02:11:24.554Z,1004.14
2023-02-24T02:12:24.529Z,1004.14
2023-02-24T02:13:24.627Z,1004.08
2023-02-24T02:14:24.515Z,1004.12
2023-02-24T02:15:24.497Z,1004.11
2023-02-24T02:16:24.530Z,1004.12
2023-02-24T02:17:24.477Z,1004.11
2023-02-24T02:18:24.449Z,1004.07
2023-02-24T02:19:24.441Z,1004.12
2023-02-24T02:20:24.420Z,1004.21
2023-02-24T02:21:24.415Z,1004.14
2023-02-24T02:22:24.398Z,1004.14
2023-02-24T02:23:24.390Z,1004.18
2023-02-24T02:24:24.377Z,1004.08
2023-02-24T02:25:24.376Z,1004.12
2023-02-24T02:26:24.380Z,1004.12
2023-02-24T02:27:24.364Z,1004.09
2023-02-24T02:28:24.347Z,1004.04
2023-02-24T02:29:24.336Z,1004.03
2023-02-24T02:30:24.317Z,1004.04
2023-02-24T02:31:24.957Z,1004.16
2023-02-24T02:32:24.449Z,1004.16
2023-02-24T02:33:24.289Z,1004.12
2023-02-24T02:34:24.266Z,1004.13
2023-02-24T02:35:24.267Z,1004.13
2023-02-24T02:36:24.253Z,1004.07
2023-02-24T02:37:24.250Z,1004.04
2023-02-24T02:38:24.221Z,1004.14
2023-02-24T02:39:24.229Z,1004.07
2023-02-24T02:40:24.216Z,1004.12
2023-02-24T02:41:24.202Z,1004.11
2023-02-24T02:42:24.196Z,1004.05
2023-02-24T02:43:24.196Z,1004.03
2023-02-24T02:44:24.164Z,1004.04
2023-02-24T02:45:24.216Z,1004.11
2023-02-24T02:46:24.143Z,1004.03
2023-02-24T02:47:24.141Z,1004.08
2023-02-24T02:48:24.135Z,1004.09
2023-02-24T02:49:24.109Z,1004.06
2023-02-24T02:50:24.098Z,1004.01
2023-02-24T02:51:24.081Z,1004.01
2023-02-24T02:52:24.062Z,1004.02
2023-02-24T02:53:24.050Z,1004.03
2023-02-24T02:54:24.047Z,1004.05
2023-02-24T02:55:24.036Z,1004.02
2023-02-24T02:56:24.020Z,1004.04
2023-02-24T02:57:24.012Z,1004.03
2023-02-24T02:58:24.001Z,1004.03
2023-02-24T02:59:24.026Z,1004.07
2023-02-24T03:00:23.980Z,1004.05
2023-02-24T03:01:24.219Z,1003.97
2023-02-24T03:02:23.959Z,1003.99
2023-02-24T03:03:23.939Z,1004.05
2023-02-24T03:04:23.972Z,1004.03
2023-02-24T03:05:23.917Z,1004.00
2023-02-24T03:06:23.932Z,1003.95
2023-02-24T03:07:23.905Z,1003.97
2023-02-24T03:08:23.907Z,1003.96
2023-02-24T03:09:23.884Z,1003.99
2023-02-24T03:10:23.875Z,1004.06
2023-02-24T03:11:23.863Z,1004.07
2023-02-24T03:12:23.855Z,1003.99
2023-02-24T03:13:23.836Z,1003.98
2023-02-24T03:14:23.829Z,1003.98
2023-02-24T03:15:23.836Z,1003.93
2023-02-24T03:16:23.855Z,1004.00
2023-02-24T03:17:23.796Z,1003.98
2023-02-24T03:18:23.793Z,1003.89
2023-02-24T03:19:23.781Z,1003.97
2023-02-24T03:20:23.753Z,1003.90
2023-02-24T03:21:23.838Z,1003.85
2023-02-24T03:22:23.736Z,1003.85
2023-02-24T03:23:23.726Z,1003.88
2023-02-24T03:24:23.719Z,1003.85
2023-02-24T03:25:23.705Z,1003.86
2023-02-24T03:26:23.690Z,1003.87
2023-02-24T03:27:23.685Z,1003.82
2023-02-24T03:28:23.683Z,1003.81
2023-02-24T03:29:23.657Z,1003.76
2023-02-24T03:30:23.649Z,1003.82
2023-02-24T03:31:24.282Z,1003.75
2023-02-24T03:32:23.798Z,1003.79
2023-02-24T03:33:23.636Z,1003.78
2023-02-24T03:34:23.605Z,1003.78
2023-02-24T03:35:23.605Z,1003.72
2023-02-24T03:36:23.581Z,1003.77
2023-02-24T03:37:23.577Z,1003.73
2023-02-24T03:38:23.574Z,1003.71
2023-02-24T03:39:23.549Z,1003.70
2023-02-24T03:40:23.537Z,1003.63
2023-02-24T03:41:23.660Z,1003.61
2023-02-24T03:42:23.543Z,1003.64
2023-02-24T03:43:23.508Z,1003.67
2023-02-24T03:44:23.506Z,1003.54
2023-02-24T03:45:23.502Z,1003.51
2023-02-24T03:46:23.606Z,1003.54
2023-02-24T03:47:23.482Z,1003.54
2023-02-24T03:48:23.448Z,1003.53
2023-02-24T03:49:23.442Z,1003.53
2023-02-24T03:50:23.427Z,1003.51
2023-02-24T03:51:23.544Z,1003.52
2023-02-24T03:52:23.414Z,1003.56
2023-02-24T03:53:23.393Z,1003.56
2023-02-24T03:54:23.388Z,1003.52
2023-02-24T03:55:23.370Z,1003.46
2023-02-24T03:56:23.365Z,1003.49
2023-02-24T03:57:23.361Z,1003.52
2023-02-24T03:58:23.336Z,1003.51
2023-02-24T03:59:23.333Z,1003.54
2023-02-24T04:00:23.333Z,1003.48
2023-02-24T04:01:23.578Z,1003.48
2023-02-24T04:02:23.344Z,1003.47
2023-02-24T04:03:23.316Z,1003.40
2023-02-24T04:04:23.339Z,1003.40
2023-02-24T04:05:23.270Z,1003.39
2023-02-24T04:06:23.378Z,1003.38
2023-02-24T04:07:23.252Z,1003.31
2023-02-24T04:08:23.236Z,1003.31
2023-02-24T04:09:23.218Z,1003.31
2023-02-24T04:10:23.201Z,1003.29
2023-02-24T04:11:23.398Z,1003.25
2023-02-24T04:12:23.261Z,1003.33
2023-02-24T04:13:23.169Z,1003.28
2023-02-24T04:14:23.169Z,1003.27
2023-02-24T04:15:23.150Z,1003.35
2023-02-24T04:16:23.138Z,1003.30
2023-02-24T04:17:23.130Z,1003.27
2023-02-24T04:18:23.136Z,1003.22
2023-02-24T04:19:23.136Z,1003.27
2023-02-24T04:20:23.108Z,1003.27
2023-02-24T04:21:23.317Z,1003.30
2023-02-24T04:22:23.066Z,1003.24
2023-02-24T04:23:23.057Z,1003.23
2023-02-24T04:24:23.049Z,1003.19
2023-02-24T04:25:23.038Z,1003.26
2023-02-24T04:26:23.028Z,1003.17
2023-02-24T04:27:23.026Z,1003.13
2023-02-24T04:28:23.013Z,1003.13
2023-02-24T04:29:23.067Z,1003.14
2023-02-24T04:30:22.984Z,1003.13
2023-02-24T04:31:23.649Z,1003.07
2023-02-24T04:32:23.120Z,1003.05
2023-02-24T04:33:22.946Z,1003.02
2023-02-24T04:34:22.952Z,1003.06
2023-02-24T04:35:23.004Z,1003.06
2023-02-24T04:36:22.922Z,1003.04
2023-02-24T04:37:22.997Z,1003.03
2023-02-24T04:38:22.901Z,1003.03
2023-02-24T04:39:22.881Z,1003.03
2023-02-24T04:40:22.873Z,1003.01
2023-02-24T04:41:23.284Z,1003.02
2023-02-24T04:42:22.842Z,1002.95
2023-02-24T04:43:22.836Z,1003.06
2023-02-24T04:44:22.821Z,1003.05
2023-02-24T04:45:22.819Z,1003.02
2023-02-24T04:46:22.847Z,1002.92
2023-02-24T04:47:22.825Z,1003.00
2023-02-24T04:48:22.780Z,1002.96
2023-02-24T04:49:22.770Z,1002.96
2023-02-24T04:50:22.789Z,1002.93
2023-02-24T04:51:23.131Z,1002.94
2023-02-24T04:52:22.737Z,1002.85
2023-02-24T04:53:22.720Z,1002.85
2023-02-24T04:54:22.717Z,1002.84
2023-02-24T04:55:22.705Z,1002.82
2023-02-24T04:56:22.692Z,1002.79
2023-02-24T04:57:22.684Z,1002.81
2023-02-24T04:58:22.684Z,1002.78
2023-02-24T04:59:22.670Z,1002.77
2023-02-24T05:00:22.653Z,1002.81
2023-02-24T05:01:22.867Z,1002.82
2023-02-24T05:02:22.627Z,1002.74
2023-02-24T05:03:22.701Z,1002.70
2023-02-24T05:04:22.632Z,1002.78
2023-02-24T05:05:22.589Z,1002.82
2023-02-24T05:06:22.601Z,1002.74
2023-02-24T05:07:22.618Z,1002.67
2023-02-24T05:08:22.561Z,1002.71
2023-02-24T05:09:22.548Z,1002.71
2023-02-24T05:10:22.539Z,1002.74
2023-02-24T05:11:23.063Z,1002.70
2023-02-24T05:12:22.510Z,1002.62
2023-02-24T05:13:22.495Z,1002.68
2023-02-24T05:14:22.493Z,1002.63
2023-02-24T05:15:22.480Z,1002.59
2023-02-24T05:16:22.575Z,1002.55
2023-02-24T05:17:22.465Z,1002.58
2023-02-24T05:18:22.449Z,1002.57
2023-02-24T05:19:22.429Z,1002.57
2023-02-24T05:20:22.424Z,1002.60
2023-02-24T05:21:22.693Z,1002.56
2023-02-24T05:22:22.403Z,1002.53
2023-02-24T05:23:22.408Z,1002.49
2023-02-24T05:24:22.374Z,1002.50
2023-02-24T05:25:22.374Z,1002.49
2023-02-24T05:26:22.360Z,1002.56
2023-02-24T05:27:22.350Z,1002.55
2023-02-24T05:28:22.331Z,1002.55
2023-02-24T05:29:22.324Z,1002.47
2023-02-24T05:30:22.424Z,1002.45
2023-02-24T05:31:22.712Z,1002.44
2023-02-24T05:32:22.545Z,1002.40
2023-02-24T05:33:22.281Z,1002.43
2023-02-24T05:34:22.275Z,1002.44
2023-02-24T05:35:22.253Z,1002.36
2023-02-24T05:36:22.267Z,1002.41
2023-02-24T05:37:22.229Z,1002.37
2023-02-24T05:38:22.221Z,1002.41
2023-02-24T05:39:22.245Z,1002.41
2023-02-24T05:40:22.193Z,1002.41
2023-02-24T05:41:22.491Z,1002.41
2023-02-24T05:42:22.180Z,1002.41
2023-02-24T05:43:22.156Z,1002.37
2023-02-24T05:44:22.151Z,1002.40
2023-02-24T05:45:22.143Z,1002.40
2023-02-24T05:46:22.152Z,1002.32
2023-02-24T05:47:22.115Z,1002.34
2023-02-24T05:48:22.099Z,1002.34
2023-02-24T05:49:22.099Z,1002.33
2023-02-24T05:50:22.082Z,1002.31
2023-02-24T05:51:22.348Z,1002.31
2023-02-24T05:52:22.054Z,1002.22
2023-02-24T05:53:22.043Z,1002.34
2023-02-24T05:54:22.034Z,1002.27
2023-02-24T05:55:22.058Z,1002.17
2023-02-24T05:56:22.016Z,1002.20
2023-02-24T05:57:22.006Z,1002.18
2023-02-24T05:58:21.993Z,1002.19
2023-02-24T05:59:21.977Z,1002.21
2023-02-24T06:00:21.975Z,1002.18
2023-02-24T06:01:22.293Z,1002.19
2023-02-24T06:02:22.069Z,1002.26
2023-02-24T06:03:22.011Z,1002.18
2023-02-24T06:04:21.928Z,1002.19
2023-02-24T06:05:21.912Z,1002.15
2023-02-24T06:06:21.910Z,1002.19
2023-02-24T06:07:21.898Z,1002.23
2023-02-24T06:08:21.888Z,1002.18
2023-02-24T06:09:21.864Z,1002.17
2023-02-24T06:10:21.862Z,1002.12
2023-02-24T06:11:22.405Z,1002.14
2023-02-24T06:12:21.844Z,1002.16
2023-02-24T06:13:21.818Z,1002.15
2023-02-24T06:14:21.804Z,1002.08
2023-02-24T06:15:21.805Z,1002.15
2023-02-24T06:16:21.846Z,1002.16
2023-02-24T06:17:21.822Z,1002.12
2023-02-24T06:18:21.775Z,1002.04
2023-02-24T06:19:21.801Z,1002.07
2023-02-24T06:20:21.758Z,1002.09
2023-02-24T06:21:23.872Z,1002.07
2023-02-24T06:22:21.721Z,1001.86
2023-02-24T06:23:21.790Z,1002.04
2023-02-24T06:24:21.699Z,1002.02
2023-02-24T06:25:21.741Z,1002.07
2023-02-24T06:26:21.705Z,1002.02
2023-02-24T06:27:21.909Z,1002.01
2023-02-24T06:28:21.666Z,1001.97
2023-02-24T06:29:21.676Z,1002.00
2023-02-24T06:30:21.749Z,1001.96
2023-02-24T06:31:22.005Z,1001.89
2023-02-24T06:32:21.785Z,1001.96
2023-02-24T06:33:21.651Z,1001.88
2023-02-24T06:34:21.590Z,1001.94
2023-02-24T06:35:21.580Z,1001.91
2023-02-24T06:36:21.570Z,1001.87
2023-02-24T06:37:21.557Z,1001.82
2023-02-24T06:38:21.543Z,1001.74
2023-02-24T06:39:21.592Z,1001.78
2023-02-24T06:40:21.517Z,1001.83
2023-02-24T06:41:21.758Z,1001.80
2023-02-24T06:42:21.525Z,1001.79
2023-02-24T06:43:21.554Z,1001.71
2023-02-24T06:44:21.474Z,1001.80
2023-02-24T06:45:21.504Z,1001.71
2023-02-24T06:46:21.534Z,1001.68
2023-02-24T06:47:21.446Z,1001.72
2023-02-24T06:48:21.430Z,1001.67
2023-02-24T06:49:21.456Z,1001.71
2023-02-24T06:50:21.416Z,1001.74
2023-02-24T06:51:21.691Z,1001.66
2023-02-24T06:52:21.392Z,1001.57
2023-02-24T06:53:21.448Z,1001.63
2023-02-24T06:54:21.360Z,1001.71
2023-02-24T06:55:21.383Z,1001.69
2023-02-24T06:56:21.346Z,1001.70
2023-02-24T06:57:21.347Z,1001.63
2023-02-24T06:58:21.329Z,1001.65
2023-02-24T06:59:21.326Z,1001.72
2023-02-24T07:00:21.297Z,1001.65
2023-02-24T07:01:21.564Z,1001.65
2023-02-24T07:02:21.283Z,1001.66
2023-02-24T07:03:21.275Z,1001.63
2023-02-24T07:04:21.353Z,1001.57
2023-02-24T07:05:21.299Z,1001.52
2023-02-24T07:06:21.228Z,1001.50
2023-02-24T07:07:21.280Z,1001.57
2023-02-24T07:08:21.227Z,1001.52
2023-02-24T07:09:21.222Z,1001.47
2023-02-24T07:10:21.179Z,1001.55
2023-02-24T07:11:21.502Z,1001.52
2023-02-24T07:12:21.360Z,1001.53
2023-02-24T07:13:21.213Z,1001.44
2023-02-24T07:14:21.142Z,1001.51
2023-02-24T07:15:21.185Z,1001.50
2023-02-24T07:16:21.197Z,1001.56
2023-02-24T07:17:21.149Z,1001.53
2023-02-24T07:18:21.093Z,1001.53
2023-02-24T07:19:21.122Z,1001.45
2023-02-24T07:20:21.069Z,1001.48
2023-02-24T07:21:21.437Z,1001.50
2023-02-24T07:22:21.051Z,1001.41
2023-02-24T07:23:21.057Z,1001.41
2023-02-24T07:24:21.029Z,1001.47
2023-02-24T07:25:21.010Z,1001.30
2023-02-24T07:26:21.010Z,1001.46
2023-02-24T07:27:20.996Z,1001.25
2023-02-24T07:28:20.978Z,1001.35
2023-02-24T07:29:21.001Z,1001.34
2023-02-24T07:30:20.961Z,1001.31
2023-02-24T07:31:21.514Z,1001.30
2023-02-24T07:32:21.136Z,1001.29
2023-02-24T07:33:20.924Z,1001.29
2023-02-24T07:34:20.915Z,1001.22
2023-02-24T07:35:20.905Z,1001.33
2023-02-24T07:36:20.894Z,1001.20
2023-02-24T07:37:20.884Z,1001.27
2023-02-24T07:38:20.866Z,1001.17
2023-02-24T07:39:20.855Z,1001.13
2023-02-24T07:40:20.855Z,1001.21
2023-02-24T07:41:21.163Z,1001.19
2023-02-24T07:42:20.829Z,1001.18
2023-02-24T07:43:20.816Z,1001.13
2023-02-24T07:44:20.799Z,1001.17
2023-02-24T07:45:20.884Z,1001.14
2023-02-24T07:46:20.826Z,1001.08
2023-02-24T07:47:20.792Z,1001.08
2023-02-24T07:48:20.756Z,1001.07
2023-02-24T07:49:20.746Z,1001.05
2023-02-24T07:50:20.734Z,1001.05
2023-02-24T07:51:21.082Z,1000.99
2023-02-24T07:52:20.711Z,1001.01
2023-02-24T07:53:20.722Z,1001.05
2023-02-24T07:54:20.682Z,1000.98
2023-02-24T07:55:20.684Z,1000.97
2023-02-24T07:56:20.663Z,1000.91
2023-02-24T07:57:20.655Z,1000.83
2023-02-24T07:58:20.638Z,1000.86
2023-02-24T07:59:20.636Z,1000.86
2023-02-24T08:00:20.641Z,1000.83
2023-02-24T08:01:20.938Z,1000.82
2023-02-24T08:02:20.721Z,1000.76
2023-02-24T08:03:20.622Z,1000.82
2023-02-24T08:04:20.587Z,1000.67
2023-02-24T08:05:20.577Z,1000.67
2023-02-24T08:06:20.553Z,1000.65
2023-02-24T08:07:20.575Z,1000.67
2023-02-24T08:08:20.524Z,1000.62
2023-02-24T08:09:20.631Z,1000.61
2023-02-24T08:10:20.508Z,1000.56
2023-02-24T08:11:20.811Z,1000.58
2023-02-24T08:12:20.488Z,1000.64
2023-02-24T08:13:20.485Z,1000.48
2023-02-24T08:14:20.470Z,1000.46
2023-02-24T08:15:20.454Z,1000.44
2023-02-24T08:16:20.471Z,1000.50
2023-02-24T08:17:20.424Z,1000.49
2023-02-24T08:18:20.423Z,1000.44
2023-02-24T08:19:20.427Z,1000.41
2023-02-24T08:20:20.403Z,1000.40
2023-02-24T08:21:20.758Z,1000.35
2023-02-24T08:22:20.377Z,1000.34
2023-02-24T08:23:20.357Z,1000.35
2023-02-24T08:24:20.352Z,1000.33
2023-02-24T08:25:20.342Z,1000.28
2023-02-24T08:26:20.386Z,1000.20
2023-02-24T08:27:20.361Z,1000.32
2023-02-24T08:28:20.306Z,1000.20
2023-02-24T08:29:20.300Z,1000.21
2023-02-24T08:30:20.286Z,1000.18
2023-02-24T08:31:20.878Z,1000.11
2023-02-24T08:32:20.909Z,1000.21
2023-02-24T08:33:20.271Z,1000.13
2023-02-24T08:34:20.239Z,1000.10
2023-02-24T08:35:20.257Z,1000.07
2023-02-24T08:36:20.222Z,1000.10
2023-02-24T08:37:20.213Z,1000.11
2023-02-24T08:38:20.198Z,1000.10
2023-02-24T08:39:20.186Z,1000.04
2023-02-24T08:40:20.174Z,1000.02
2023-02-24T08:41:20.784Z,999.92
2023-02-24T08:42:20.149Z,999.97
2023-02-24T08:43:20.149Z,999.93
2023-02-24T08:44:20.133Z,1000.04
2023-02-24T08:45:20.120Z,1000.00
2023-02-24T08:46:20.130Z,1000.02
2023-02-24T08:47:20.096Z,1000.09
2023-02-24T08:48:20.092Z,1000.02
2023-02-24T08:49:20.082Z,999.97
2023-02-24T08:50:20.061Z,1000.02
2023-02-24T08:51:20.485Z,999.99
2023-02-24T08:52:20.052Z,999.93
2023-02-24T08:53:20.047Z,999.94
2023-02-24T08:54:20.039Z,999.84
2023-02-24T08:55:20.007Z,999.88
2023-02-24T08:56:20.338Z,999.87
2023-02-24T08:57:19.994Z,999.71
2023-02-24T08:58:19.975Z,999.79
2023-02-24T08:59:19.977Z,999.72
2023-02-24T09:00:19.960Z,999.71
2023-02-24T09:01:20.575Z,999.77
2023-02-24T09:02:19.945Z,999.77
2023-02-24T09:03:19.921Z,999.73
2023-02-24T09:04:20.009Z,999.72
2023-02-24T09:05:19.901Z,999.74
2023-02-24T09:06:19.895Z,999.69
2023-02-24T09:07:19.919Z,999.70
2023-02-24T09:08:19.876Z,999.67
2023-02-24T09:09:19.868Z,999.66
2023-02-24T09:10:19.850Z,999.58
2023-02-24T09:11:20.248Z,999.61
2023-02-24T09:12:19.832Z,999.55
2023-02-24T09:13:19.814Z,999.55
2023-02-24T09:14:28.199Z,999.50
2023-02-24T09:15:19.798Z,999.48
2023-02-24T09:16:19.850Z,999.53
2023-02-24T09:17:19.781Z,999.48
2023-02-24T09:18:19.763Z,999.43
2023-02-24T09:19:19.763Z,999.41
2023-02-24T09:20:19.743Z,999.48
2023-02-24T09:21:20.034Z,999.48
2023-02-24T09:22:21.517Z,999.45
2023-02-24T09:23:19.737Z,999.37
2023-02-24T09:24:19.700Z,999.37
2023-02-24T09:25:19.700Z,999.40
2023-02-24T09:26:19.681Z,999.39
2023-02-24T09:27:19.670Z,999.32
2023-02-24T09:28:19.768Z,999.34
2023-02-24T09:29:19.646Z,999.33
2023-02-24T09:30:19.634Z,999.28
2023-02-24T09:31:19.904Z,999.32
2023-02-24T09:32:19.779Z,999.30
2023-02-24T09:33:19.600Z,999.34
2023-02-24T09:34:19.583Z,999.24
2023-02-24T09:35:19.574Z,999.28
2023-02-24T09:36:19.568Z,999.25
2023-02-24T09:37:19.558Z,999.29
2023-02-24T09:38:19.589Z,999.16
2023-02-24T09:39:19.560Z,999.19
2023-02-24T09:40:19.556Z,999.23
2023-02-24T09:41:19.536Z,999.07
2023-02-24T09:42:19.504Z,999.15
2023-02-24T09:43:19.503Z,999.14
2023-02-24T09:44:19.558Z,999.03
2023-02-24T09:45:19.468Z,999.12
2023-02-24T09:46:19.620Z,999.14
2023-02-24T09:47:19.450Z,999.10
2023-02-24T09:48:19.466Z,999.04
2023-02-24T09:49:19.464Z,999.10
2023-02-24T09:50:38.295Z,999.07
2023-02-24T09:51:19.933Z,999.00
2023-02-24T09:52:19.396Z,999.05
2023-02-24T09:53:19.397Z,998.97
2023-02-24T09:54:19.375Z,998.97
2023-02-24T09:55:19.387Z,998.89
2023-02-24T09:56:19.350Z,998.95
2023-02-24T09:57:19.345Z,998.88
2023-02-24T09:58:19.325Z,998.88
2023-02-24T09:59:19.316Z,998.87
2023-02-24T10:00:19.303Z,998.79
2023-02-24T10:01:19.737Z,998.81
2023-02-24T10:02:19.367Z,998.81
2023-02-24T10:03:19.282Z,998.72
2023-02-24T10:04:21.392Z,998.83
2023-02-24T10:05:19.250Z,998.79
2023-02-24T10:06:19.241Z,998.82
2023-02-24T10:07:19.233Z,998.78
2023-02-24T10:08:19.219Z,998.70
2023-02-24T10:09:19.207Z,998.77
2023-02-24T10:10:19.190Z,998.75
2023-02-24T10:11:19.336Z,998.74
2023-02-24T10:12:19.165Z,998.66
2023-02-24T10:13:19.173Z,998.66
2023-02-24T10:14:19.149Z,998.67
2023-02-24T10:15:19.206Z,998.63
2023-02-24T10:16:19.156Z,998.67
2023-02-24T10:17:20.683Z,998.61
2023-02-24T10:18:19.095Z,998.63
2023-02-24T10:19:19.085Z,998.63
2023-02-24T10:20:19.081Z,998.55
2023-02-24T10:21:19.435Z,998.64
2023-02-24T10:22:19.055Z,998.53
2023-02-24T10:23:19.050Z,998.58
2023-02-24T10:24:19.030Z,998.50
2023-02-24T10:25:21.219Z,998.46
2023-02-24T10:26:19.010Z,998.48
2023-02-24T10:27:19.032Z,998.57
2023-02-24T10:28:19.026Z,998.45
2023-02-24T10:29:19.109Z,998.44
2023-02-24T10:30:18.976Z,998.50
2023-02-24T10:31:19.445Z,998.50
2023-02-24T10:32:19.120Z,998.34
2023-02-24T10:33:18.969Z,998.47
2023-02-24T10:34:18.933Z,998.42
2023-02-24T10:35:18.914Z,998.37
2023-02-24T10:36:18.898Z,998.42
2023-02-24T10:37:27.506Z,998.30
2023-02-24T10:38:18.879Z,998.27
2023-02-24T10:39:18.854Z,998.31
2023-02-24T10:40:18.920Z,998.25
2023-02-24T10:41:19.073Z,998.20
2023-02-24T10:42:18.877Z,998.22
2023-02-24T10:43:18.922Z,998.21
2023-02-24T10:44:18.799Z,998.14
2023-02-24T10:45:19.618Z,998.10
2023-02-24T10:46:26.262Z,998.14
2023-02-24T10:47:18.770Z,998.22
2023-02-24T10:48:19.528Z,998.06
2023-02-24T10:49:18.747Z,998.06
2023-02-24T10:50:18.742Z,998.04
2023-02-24T10:51:18.774Z,998.10
2023-02-24T10:52:18.707Z,998.05
2023-02-24T10:53:18.709Z,998.07
2023-02-24T10:54:18.682Z,998.00
2023-02-24T10:55:18.674Z,998.09
2023-02-24T10:56:18.896Z,998.06
2023-02-24T10:57:18.742Z,998.10
2023-02-24T10:58:18.639Z,997.98
2023-02-24T10:59:18.708Z,998.05
2023-02-24T11:00:18.616Z,998.05
2023-02-24T11:01:18.713Z,998.03
2023-02-24T11:02:18.671Z,998.05
2023-02-24T11:03:31.390Z,997.98
2023-02-24T11:04:18.580Z,997.94
2023-02-24T11:05:18.561Z,997.90
2023-02-24T11:06:18.552Z,998.02
2023-02-24T11:07:18.537Z,998.00
2023-02-24T11:08:18.522Z,997.91
2023-02-24T11:09:18.522Z,997.91
2023-02-24T11:10:18.570Z,997.85
2023-02-24T11:11:18.641Z,997.88
2023-02-24T11:12:18.475Z,997.82
2023-02-24T11:13:18.470Z,997.84
2023-02-24T11:14:18.449Z,997.87
2023-02-24T11:15:18.475Z,997.84
2023-02-24T11:16:18.537Z,997.87
2023-02-24T11:17:18.414Z,997.79
2023-02-24T11:18:18.404Z,997.78
2023-02-24T11:19:18.400Z,997.77
2023-02-24T11:20:18.509Z,997.70
2023-02-24T11:21:18.615Z,997.74
2023-02-24T11:22:18.370Z,997.72
2023-02-24T11:23:18.353Z,997.62
2023-02-24T11:24:18.336Z,997.64
2023-02-24T11:25:18.336Z,997.65
2023-02-24T11:26:18.320Z,997.59
2023-02-24T11:27:18.311Z,997.59
2023-02-24T11:28:18.293Z,997.51
2023-02-24T11:29:18.285Z,997.51
2023-02-24T11:30:18.442Z,997.51
2023-02-24T11:31:18.425Z,997.45
2023-02-24T11:32:18.487Z,997.50
2023-02-24T11:33:18.231Z,997.51
2023-02-24T11:34:18.218Z,997.38
2023-02-24T11:35:18.210Z,997.46
2023-02-24T11:36:18.221Z,997.40
2023-02-24T11:37:18.209Z,997.38
2023-02-24T11:38:18.221Z,997.40
2023-02-24T11:39:21.517Z,997.31
2023-02-24T11:40:18.178Z,997.29
2023-02-24T11:41:18.193Z,997.26
2023-02-24T11:42:18.219Z,997.35
2023-02-24T11:43:18.209Z,997.38
2023-02-24T11:44:18.122Z,997.22
2023-02-24T11:45:18.113Z,997.26
2023-02-24T11:46:18.197Z,997.30
2023-02-24T11:47:18.116Z,997.19
2023-02-24T11:48:18.093Z,997.24
2023-02-24T11:49:18.064Z,997.11
2023-02-24T11:50:18.062Z,997.19
2023-02-24T11:51:18.045Z,997.12
2023-02-24T11:52:18.035Z,997.05
2023-02-24T11:53:18.038Z,997.10
2023-02-24T11:54:18.012Z,996.99
2023-02-24T11:55:18.005Z,997.03
2023-02-24T11:56:17.989Z,996.98
2023-02-24T11:57:17.973Z,997.02
2023-02-24T11:58:17.972Z,996.94
2023-02-24T11:59:17.945Z,996.96
2023-02-24T12:00:18.148Z,996.93
2023-02-24T12:01:17.930Z,996.96
2023-02-24T12:02:17.920Z,996.95
2023-02-24T12:03:18.074Z,996.91
2023-02-24T12:04:17.890Z,996.92
2023-02-24T12:05:17.880Z,996.94
2023-02-24T12:06:17.952Z,996.88
2023-02-24T12:07:17.856Z,996.86
2023-02-24T12:08:17.852Z,996.80
2023-02-24T12:09:17.834Z,996.76
2023-02-24T12:10:18.015Z,996.75
2023-02-24T12:11:17.821Z,996.69
2023-02-24T12:12:17.807Z,996.73